Time;durP1;ratioP1;P1;durP2;ratioP2;P2;SDS_P1;SDS_P2;PMS_P1;PMS_P2;Temp;Humidity;BMP_temperature;BMP_pressure;BME280_temperature;BME280_humidity;BME280_pressure;Samples;Min_cycle;Max_cycle;Signal;HPM_P1;HPM_P2
2022/03/16 00:00:34;;;;;;;1.98;1.54;;;;;;;-1.18;57.34;102369.27;457108;116;922586;-69
2022/03/16 00:01:38;;;;;;;2.16;1.82;;;;;;;-1.17;57.35;102371.86;457130;114;922632;-67
2022/03/16 00:02:41;;;;;;;4.51;1.70;;;;;;;-1.17;57.25;102370.99;457155;116;922547;-68
2022/03/16 00:03:45;;;;;;;2.54;2.10;;;;;;;-1.16;57.26;102376.26;457136;116;922929;-70
2022/03/16 00:04:49;;;;;;;2.20;1.84;;;;;;;-1.15;57.24;102372.59;457116;116;924476;-68
2022/03/16 00:05:54;;;;;;;2.09;1.90;;;;;;;-1.15;57.18;102371.73;457085;114;922524;-69
2022/03/16 00:06:57;;;;;;;2.72;1.81;;;;;;;-1.15;57.17;102379.77;457003;116;922723;-67
2022/03/16 00:08:00;;;;;;;2.44;1.86;;;;;;;-1.15;57.16;102372.59;457080;116;930356;-67
2022/03/16 00:09:04;;;;;;;2.04;1.76;;;;;;;-1.14;57.13;102373.47;457205;116;923136;-69
2022/03/16 00:10:09;;;;;;;2.41;1.81;;;;;;;-1.15;57.02;102377.09;457155;115;923004;-69
2022/03/16 00:11:13;;;;;;;1.96;1.66;;;;;;;-1.17;56.95;102361.15;457026;114;922719;-68
2022/03/16 00:12:16;;;;;;;2.64;2.28;;;;;;;-1.18;56.87;102359.42;457107;116;923032;-67
2022/03/16 00:13:19;;;;;;;2.26;1.70;;;;;;;-1.26;56.75;102365.24;457126;116;922515;-68
2022/03/16 00:14:23;;;;;;;2.27;1.78;;;;;;;-1.26;56.75;102365.24;457092;116;930335;-70
2022/03/16 00:15:26;;;;;;;2.27;1.94;;;;;;;-1.29;56.85;102368.13;457046;116;922636;-66
2022/03/16 00:16:29;;;;;;;2.94;2.01;;;;;;;-1.31;56.78;102378.05;457033;116;922528;-67
2022/03/16 00:17:33;;;;;;;1.81;1.62;;;;;;;-1.34;56.87;102375.58;457116;116;922534;-69
2022/03/16 00:18:37;;;;;;;2.46;1.51;;;;;;;-1.37;56.86;102374.88;457075;116;930358;-68
2022/03/16 00:19:41;;;;;;;1.67;1.57;;;;;;;-1.41;56.85;102376.03;457101;115;922843;-70
2022/03/16 00:20:44;;;;;;;1.59;1.49;;;;;;;-1.43;57.00;102375.25;457061;116;930336;-70
2022/03/16 00:21:47;;;;;;;2.26;1.88;;;;;;;-1.42;57.11;102379.66;457056;116;930281;-67
2022/03/16 00:22:51;;;;;;;3.55;1.80;;;;;;;-1.42;57.15;102368.95;457079;116;922600;-68
2022/03/16 00:23:54;;;;;;;2.36;1.79;;;;;;;-1.41;57.17;102368.01;457072;116;922933;-68
2022/03/16 00:24:57;;;;;;;1.89;1.57;;;;;;;-1.40;57.17;102369.73;457061;116;930414;-70
2022/03/16 00:26:00;;;;;;;2.27;1.96;;;;;;;-1.38;57.23;102371.34;457093;116;922523;-70
2022/03/16 00:27:04;;;;;;;5.05;3.14;;;;;;;-1.37;57.25;102370.39;457125;116;922608;-70
2022/03/16 00:28:07;;;;;;;3.12;2.32;;;;;;;-1.36;57.17;102366.77;457164;116;922573;-69
2022/03/16 00:29:10;;;;;;;2.59;2.25;;;;;;;-1.37;56.98;102366.86;457039;115;930373;-69
2022/03/16 00:30:16;;;;;;;3.69;2.64;;;;;;;-1.40;56.97;102367.06;451473;117;922676;-68
2022/03/16 00:31:20;;;;;;;2.98;2.51;;;;;;;-1.46;57.08;102373.64;452185;116;922904;-69
2022/03/16 00:32:24;;;;;;;3.06;2.18;;;;;;;-1.46;57.08;102373.64;457034;116;930385;-67
2022/03/16 00:33:27;;;;;;;3.04;2.65;;;;;;;-1.47;57.31;102363.89;457142;113;923019;-67
2022/03/16 00:34:31;;;;;;;2.63;2.42;;;;;;;-1.45;57.25;102366.48;457144;115;922584;-69
2022/03/16 00:35:36;;;;;;;4.25;3.19;;;;;;;-1.44;57.21;102366.40;456983;116;922609;-67
2022/03/16 00:36:40;;;;;;;3.47;2.92;;;;;;;-1.46;57.17;102368.30;457062;114;922738;-69
2022/03/16 00:37:43;;;;;;;5.01;3.30;;;;;;;-1.48;57.14;102367.52;456959;116;930419;-70
2022/03/16 00:38:46;;;;;;;3.98;2.96;;;;;;;-1.49;57.17;102371.14;457068;116;922928;-68
2022/03/16 00:39:50;;;;;;;4.26;3.12;;;;;;;-1.49;57.21;102373.81;457165;115;923013;-68
2022/03/16 00:40:53;;;;;;;3.74;3.16;;;;;;;-1.49;57.24;102365.79;457067;114;922463;-68
2022/03/16 00:41:56;;;;;;;3.96;3.49;;;;;;;-1.50;57.25;102369.45;457113;116;922608;-68
2022/03/16 00:43:00;;;;;;;4.62;4.12;;;;;;;-1.49;57.30;102365.79;457046;116;922532;-67
2022/03/16 00:44:04;;;;;;;3.98;3.61;;;;;;;-1.48;57.30;102364.84;457081;116;922633;-68
2022/03/16 00:45:08;;;;;;;3.59;3.08;;;;;;;-1.47;57.29;102373.73;447615;117;922697;-69
2022/03/16 00:46:13;;;;;;;4.15;3.04;;;;;;;-1.47;57.31;102368.38;448233;116;923294;-68
2022/03/16 00:47:16;;;;;;;3.96;3.14;;;;;;;-1.48;57.15;102367.52;457044;116;922642;-68
2022/03/16 00:48:20;;;;;;;3.95;2.66;;;;;;;-1.49;57.17;102368.47;457040;116;922606;-67
2022/03/16 00:49:23;;;;;;;3.67;2.68;;;;;;;-1.49;57.19;102365.79;457046;116;922633;-68
2022/03/16 00:50:27;;;;;;;3.10;2.66;;;;;;;-1.48;57.19;102363.98;457077;116;922857;-68
2022/03/16 00:51:30;;;;;;;3.32;2.24;;;;;;;-1.48;57.25;102364.84;456977;114;926514;-69
2022/03/16 00:52:33;;;;;;;3.39;2.76;;;;;;;-1.47;57.15;102365.70;457071;116;922546;-69
2022/03/16 00:53:39;;;;;;;4.24;2.32;;;;;;;-1.49;57.25;102360.44;457061;116;922684;-68
2022/03/16 00:54:42;;;;;;;3.70;2.77;;;;;;;-1.48;57.11;102364.84;456580;116;922547;-68
2022/03/16 00:55:45;;;;;;;3.12;2.74;;;;;;;-1.49;57.02;102362.28;457159;114;922997;-71
2022/03/16 00:56:49;;;;;;;3.01;2.51;;;;;;;-1.51;57.10;102362.37;457131;116;922937;-69
2022/03/16 00:57:52;;;;;;;3.58;2.24;;;;;;;-1.51;57.08;102373.07;457087;116;930409;-68
2022/03/16 00:58:55;;;;;;;2.74;2.41;;;;;;;-1.51;57.15;102364.18;457104;116;922820;-69
2022/03/16 00:59:59;;;;;;;3.82;2.51;;;;;;;-1.50;57.13;102361.42;457097;116;922908;-69
2022/03/16 01:01:07;;;;;;;3.94;3.02;;;;;;;-1.49;57.05;102367.64;457093;114;922911;-70
2022/03/16 01:02:11;;;;;;;3.45;2.21;;;;;;;-1.51;57.01;102361.51;456784;116;922627;-68
2022/03/16 01:03:15;;;;;;;2.72;2.48;;;;;;;-1.51;56.96;102367.72;457169;115;923083;-69
2022/03/16 01:04:19;;;;;;;2.91;2.54;;;;;;;-1.53;57.04;102374.97;447784;118;922536;-70
2022/03/16 01:05:23;;;;;;;2.25;1.99;;;;;;;-1.54;57.04;102372.37;448114;116;923063;-69
2022/03/16 01:06:26;;;;;;;2.62;2.21;;;;;;;-1.57;57.10;102368.09;457024;116;930567;-70
2022/03/16 01:07:29;;;;;;;2.69;2.06;;;;;;;-1.58;57.04;102368.17;457144;115;930301;-69
2022/03/16 01:08:33;;;;;;;2.88;2.06;;;;;;;-1.62;57.00;102366.65;457127;116;922982;-68
2022/03/16 01:09:36;;;;;;;2.22;1.81;;;;;;;-1.67;56.98;102364.26;457252;116;922886;-67
2022/03/16 01:10:39;;;;;;;2.65;2.20;;;;;;;-1.71;57.03;102360.89;457169;116;922774;-68
2022/03/16 01:11:43;;;;;;;2.63;2.36;;;;;;;-1.75;57.08;102361.17;457077;115;930270;-68
2022/03/16 01:12:46;;;;;;;2.91;2.17;;;;;;;-1.76;57.21;102372.81;457181;115;925048;-67
2022/03/16 01:13:50;;;;;;;2.56;2.36;;;;;;;-1.77;57.35;102361.28;457196;115;930674;-68
2022/03/16 01:14:53;;;;;;;3.12;2.05;;;;;;;-1.76;57.38;102373.67;457065;116;922577;-70
2022/03/16 01:15:56;;;;;;;2.64;1.76;;;;;;;-1.77;57.38;102361.28;457091;116;923257;-67
2022/03/16 01:17:01;;;;;;;2.98;2.24;;;;;;;-1.77;57.36;102363.09;447636;118;926150;-69
2022/03/16 01:18:06;;;;;;;2.62;1.92;;;;;;;-1.76;57.33;102378.16;448373;116;922722;-69
2022/03/16 01:19:14;;;;;;;2.42;1.96;;;;;;;-1.78;57.31;102380.08;457159;116;922781;-69
2022/03/16 01:20:16;;;;;;;2.48;2.03;;;;;;;-1.79;57.26;102370.33;456867;115;930492;-70
2022/03/16 01:21:21;;;;;;;3.67;2.04;;;;;;;-1.81;57.25;102364.20;456962;116;923078;-69
2022/03/16 01:22:24;;;;;;;3.22;2.20;;;;;;;-1.83;57.29;102379.50;457102;116;922558;-67
2022/03/16 01:23:27;;;;;;;3.59;2.39;;;;;;;-1.84;57.27;102367.94;457105;116;922566;-69
2022/03/16 01:24:31;;;;;;;3.62;2.11;;;;;;;-1.85;57.41;102376.91;457212;116;922428;-68
2022/03/16 01:25:35;;;;;;;2.56;2.25;;;;;;;-1.84;57.47;102370.61;457047;115;922568;-68
2022/03/16 01:26:38;;;;;;;2.99;2.33;;;;;;;-1.83;57.42;102371.48;456888;114;922714;-68
2022/03/16 01:27:42;;;;;;;2.66;2.43;;;;;;;-1.84;57.43;102367.08;457133;116;922484;-67
2022/03/16 01:28:45;;;;;;;4.41;2.29;;;;;;;-1.85;57.33;102379.58;457054;116;922689;-69
2022/03/16 01:29:50;;;;;;;2.97;2.67;;;;;;;-1.87;57.33;102373.45;457110;115;922708;-69
2022/03/16 01:30:53;;;;;;;3.34;2.35;;;;;;;-1.88;57.47;102374.44;457087;114;922825;-69
2022/03/16 01:31:56;;;;;;;3.36;2.58;;;;;;;-1.86;57.54;102366.30;457133;116;923500;-69
2022/03/16 01:33:01;;;;;;;3.23;2.47;;;;;;;-1.85;57.62;102366.21;457080;113;922468;-69
2022/03/16 01:34:04;;;;;;;3.63;2.55;;;;;;;-1.84;57.51;102369.75;457026;116;930316;-68
2022/03/16 01:35:09;;;;;;;3.08;2.31;;;;;;;-1.85;57.53;102373.37;457093;115;923770;-69
2022/03/16 01:36:12;;;;;;;3.52;2.50;;;;;;;-1.84;57.65;102369.75;457004;114;922645;-68
2022/03/16 01:37:16;;;;;;;3.17;2.84;;;;;;;-1.84;57.69;102370.61;457124;116;922765;-70
2022/03/16 01:38:19;;;;;;;2.92;2.59;;;;;;;-1.82;57.68;102371.36;457070;116;922591;-70
2022/03/16 01:39:22;;;;;;;3.91;3.00;;;;;;;-1.79;57.77;102373.88;456822;116;922639;-68
2022/03/16 01:40:26;;;;;;;3.56;2.96;;;;;;;-1.75;57.73;102366.52;457038;116;923329;-69
2022/03/16 01:41:29;;;;;;;6.23;2.76;;;;;;;-1.73;57.74;102369.97;457078;116;922955;-69
2022/03/16 01:42:33;;;;;;;3.54;2.77;;;;;;;-1.72;57.62;102369.89;456949;116;923418;-68
2022/03/16 01:43:37;;;;;;;3.41;2.73;;;;;;;-1.72;57.51;102364.54;456883;116;930363;-67
2022/03/16 01:44:49;;;;;;;3.76;2.93;;;;;;;-1.74;57.33;102366.44;457056;116;922531;-68
2022/03/16 01:45:52;;;;;;;3.75;2.81;;;;;;;-1.76;57.31;102378.16;456825;114;922956;-68
2022/03/16 01:46:56;;;;;;;3.14;2.79;;;;;;;-1.78;57.35;102372.06;457137;116;922608;-69
2022/03/16 01:47:59;;;;;;;3.58;3.25;;;;;;;-1.80;57.33;102377.49;457037;116;930303;-68
2022/03/16 01:49:03;;;;;;;3.46;2.91;;;;;;;-1.82;57.25;102367.86;457107;116;922927;-67
2022/03/16 01:50:08;;;;;;;3.48;3.14;;;;;;;-1.86;57.28;102371.64;457093;116;922463;-68
2022/03/16 01:51:12;;;;;;;3.15;2.86;;;;;;;-1.88;57.32;102376.23;457127;114;922647;-68
2022/03/16 01:52:18;;;;;;;3.64;2.88;;;;;;;-1.90;57.40;102373.65;457182;116;922979;-68
2022/03/16 01:53:24;;;;;;;3.47;3.17;;;;;;;-1.92;57.30;102377.34;456690;116;922907;-68
2022/03/16 01:54:27;;;;;;;4.65;2.98;;;;;;;-1.93;57.42;102367.64;456957;116;922923;-67
2022/03/16 01:55:31;;;;;;;3.09;2.69;;;;;;;-1.94;57.48;102373.93;457049;115;923363;-68
2022/03/16 01:56:34;;;;;;;2.79;2.58;;;;;;;-1.94;57.53;102377.47;457119;114;922658;-69
2022/03/16 01:57:41;;;;;;;2.95;2.65;;;;;;;-1.95;57.42;102377.55;457030;116;930365;-68
2022/03/16 01:58:45;;;;;;;2.74;2.27;;;;;;;-1.98;57.41;102373.23;456990;116;922635;-68
2022/03/16 01:59:49;;;;;;;2.75;2.53;;;;;;;-1.99;57.47;102381.36;456827;116;922961;-69
2022/03/16 02:00:52;;;;;;;3.45;2.69;;;;;;;-2.02;57.45;102382.38;457093;114;922722;-68
2022/03/16 02:01:56;;;;;;;2.76;2.50;;;;;;;-2.06;57.51;102386.20;457163;115;930446;-68
2022/03/16 02:03:01;;;;;;;2.81;2.39;;;;;;;-2.08;57.62;102374.72;457036;116;922564;-69
2022/03/16 02:04:04;;;;;;;2.51;2.29;;;;;;;-2.09;57.56;102375.67;457077;116;922691;-68
2022/03/16 02:05:08;;;;;;;3.24;1.98;;;;;;;-2.13;57.60;102372.33;456815;116;930494;-67
2022/03/16 02:06:12;;;;;;;3.04;2.29;;;;;;;-2.13;57.71;102374.13;457010;114;922696;-68
2022/03/16 02:07:15;;;;;;;2.76;2.47;;;;;;;-2.12;57.76;102376.73;457138;115;922593;-67
2022/03/16 02:08:19;;;;;;;4.21;2.86;;;;;;;-2.11;57.82;102372.24;456739;115;922602;-70
2022/03/16 02:09:23;;;;;;;3.28;2.56;;;;;;;-2.13;57.77;102374.13;457144;116;922550;-69
2022/03/16 02:10:27;;;;;;;6.42;2.04;;;;;;;-2.16;57.69;102374.33;456978;114;922689;-68
2022/03/16 02:11:30;;;;;;;2.28;2.04;;;;;;;-2.20;57.68;102376.30;457335;114;922653;-69
2022/03/16 02:12:44;;;;;;;2.84;2.31;;;;;;;-2.22;57.93;102375.55;457166;116;923379;-69
2022/03/16 02:13:47;;;;;;;2.76;1.91;;;;;;;-2.23;57.89;102371.14;457063;116;922646;-68
2022/03/16 02:14:51;;;;;;;5.84;1.82;;;;;;;-2.22;57.88;102369.34;457151;116;922652;-71
2022/03/16 02:15:54;;;;;;;2.68;2.37;;;;;;;-2.24;57.92;102369.42;457134;116;930563;-70
2022/03/16 02:16:58;;;;;;;2.59;2.27;;;;;;;-2.23;58.02;102368.47;457182;116;922502;-68
2022/03/16 02:18:02;;;;;;;2.96;2.35;;;;;;;-2.22;58.03;102369.34;457018;114;930451;-69
2022/03/16 02:19:05;;;;;;;2.68;1.99;;;;;;;-2.22;58.13;102375.55;457229;114;922879;-68
2022/03/16 02:20:11;;;;;;;3.27;2.25;;;;;;;-2.20;58.12;102370.09;457137;115;922930;-68
2022/03/16 02:21:16;;;;;;;2.98;2.09;;;;;;;-2.18;58.17;102373.55;456972;116;923176;-68
2022/03/16 02:22:20;;;;;;;2.61;1.97;;;;;;;-2.17;58.20;102373.46;456821;116;930339;-68
2022/03/16 02:23:23;;;;;;;2.56;2.31;;;;;;;-2.15;58.23;102371.55;457001;116;922498;-66
2022/03/16 02:24:29;;;;;;;2.64;2.01;;;;;;;-2.12;58.24;102367.84;457129;116;922690;-70
2022/03/16 02:25:35;;;;;;;2.44;1.94;;;;;;;-2.11;58.14;102372.24;456929;116;923012;-69
2022/03/16 02:26:39;;;;;;;2.46;2.25;;;;;;;-2.12;58.00;102370.52;454045;116;922616;-70
2022/03/16 02:27:43;;;;;;;1.95;1.76;;;;;;;-2.11;58.09;102373.11;457053;116;922610;-67
2022/03/16 02:28:46;;;;;;;2.56;1.99;;;;;;;-2.10;57.97;102373.97;457078;116;922951;-69
2022/03/16 02:29:50;;;;;;;2.92;2.20;;;;;;;-2.13;57.94;102371.46;457220;115;922613;-68
2022/03/16 02:30:53;;;;;;;2.86;1.96;;;;;;;-2.13;58.03;102371.46;457127;114;922543;-69
2022/03/16 02:31:56;;;;;;;2.08;1.87;;;;;;;-2.13;58.06;102368.79;457115;116;928822;-68
2022/03/16 02:33:00;;;;;;;2.51;1.77;;;;;;;-2.13;58.16;102372.33;457177;113;922612;-68
2022/03/16 02:34:03;;;;;;;1.98;1.78;;;;;;;-2.09;58.11;102372.16;457010;116;930934;-68
2022/03/16 02:35:07;;;;;;;2.46;1.98;;;;;;;-2.09;58.06;102374.84;457151;116;930611;-66
2022/03/16 02:36:11;;;;;;;2.73;1.85;;;;;;;-2.10;57.93;102379.32;456951;116;922703;-69
2022/03/16 02:37:14;;;;;;;3.04;2.04;;;;;;;-2.09;58.04;102375.67;457062;116;922910;-69
2022/03/16 02:38:18;;;;;;;2.32;2.12;;;;;;;-2.08;58.08;102371.19;457004;116;930509;-69
2022/03/16 02:39:22;;;;;;;1.89;1.76;;;;;;;-2.06;58.07;102385.33;457106;116;923056;-69
2022/03/16 02:40:25;;;;;;;2.72;1.96;;;;;;;-2.08;57.98;102377.39;457049;116;930430;-69
2022/03/16 02:41:29;;;;;;;2.71;2.47;;;;;;;-2.08;57.95;102366.70;457127;114;922606;-66
2022/03/16 02:42:32;;;;;;;2.73;2.37;;;;;;;-2.06;58.01;102369.30;457035;116;930460;-69
2022/03/16 02:43:35;;;;;;;2.97;2.36;;;;;;;-2.06;58.03;102371.97;457080;116;922539;-69
2022/03/16 02:44:39;;;;;;;2.86;2.49;;;;;;;-2.05;58.08;102376.38;457031;116;930371;-68
2022/03/16 02:45:44;;;;;;;3.47;2.80;;;;;;;-2.03;58.11;102377.12;456895;114;922581;-69
2022/03/16 02:46:47;;;;;;;2.17;1.85;;;;;;;-2.00;58.16;102372.48;457158;116;922812;-70
2022/03/16 02:47:50;;;;;;;4.04;2.58;;;;;;;-1.96;58.12;102370.47;457146;116;923236;-68
2022/03/16 02:48:54;;;;;;;3.22;2.38;;;;;;;-1.93;58.05;102371.14;457124;116;922806;-68
2022/03/16 02:49:57;;;;;;;3.23;2.49;;;;;;;-1.92;57.94;102355.97;457082;115;922930;-68
2022/03/16 02:51:00;;;;;;;3.71;2.42;;;;;;;-1.91;57.85;102369.25;457091;114;922564;-68
2022/03/16 02:52:08;;;;;;;2.57;2.06;;;;;;;-1.90;57.87;102365.63;457099;116;922549;-68
2022/03/16 02:53:11;;;;;;;6.07;2.53;;;;;;;-1.90;57.80;102357.61;456895;114;922619;-69
2022/03/16 02:54:16;;;;;;;2.92;2.58;;;;;;;-1.88;57.83;102357.53;456326;116;922686;-70
2022/03/16 02:55:20;;;;;;;3.74;2.47;;;;;;;-1.87;57.84;102359.22;457085;115;922501;-67
2022/03/16 02:56:27;;;;;;;3.64;2.86;;;;;;;-1.84;57.94;102362.59;457136;114;922592;-68
2022/03/16 02:57:28;;;;;;;2.71;2.42;;;;;;;-1.80;57.99;102349.89;456982;116;923050;-68
2022/03/16 02:58:31;;;;;;;3.36;2.62;;;;;;;-1.76;57.86;102346.94;457128;116;922627;-68
2022/03/16 02:59:36;;;;;;;2.46;2.26;;;;;;;-1.74;57.78;102342.37;457127;116;930317;-66
2022/03/16 03:00:40;;;;;;;2.76;2.38;;;;;;;-1.72;57.66;102350.30;457016;115;922475;-69
2022/03/16 03:01:43;;;;;;;2.42;2.22;;;;;;;-1.73;57.52;102349.44;457244;115;922555;-69
2022/03/16 03:02:47;;;;;;;2.68;2.48;;;;;;;-1.75;57.41;102353.14;456887;116;923047;-68
2022/03/16 03:03:50;;;;;;;2.88;2.68;;;;;;;-1.78;57.35;102353.34;457048;116;930473;-68
2022/03/16 03:04:54;;;;;;;2.58;2.35;;;;;;;-1.81;57.41;102346.35;457081;116;930242;-69
2022/03/16 03:05:57;;;;;;;3.16;2.75;;;;;;;-1.83;57.42;102352.77;456999;114;922548;-68
2022/03/16 03:07:00;;;;;;;3.27;2.97;;;;;;;-1.85;57.44;102352.84;457071;116;922962;-66
2022/03/16 03:08:04;;;;;;;3.57;2.32;;;;;;;-1.88;57.35;102346.83;457119;116;928886;-68
2022/03/16 03:09:07;;;;;;;5.45;2.76;;;;;;;-1.91;57.43;102338.98;457137;116;922597;-67
2022/03/16 03:10:12;;;;;;;2.30;2.10;;;;;;;-1.93;57.46;102346.25;456990;116;930540;-69
2022/03/16 03:11:15;;;;;;;2.36;2.16;;;;;;;-1.95;57.50;102350.81;457044;114;923041;-69
2022/03/16 03:12:18;;;;;;;6.13;2.35;;;;;;;-1.96;57.51;102343.74;457045;116;930421;-67
2022/03/16 03:13:22;;;;;;;2.88;1.93;;;;;;;-2.00;57.50;102355.58;457141;116;923028;-67
2022/03/16 03:14:27;;;;;;;2.25;1.99;;;;;;;-2.05;57.52;102357.66;457170;116;922577;-69
2022/03/16 03:15:33;;;;;;;2.72;2.44;;;;;;;-2.09;57.64;102351.61;457028;116;922555;-69
2022/03/16 03:16:36;;;;;;;2.68;2.26;;;;;;;-2.12;57.69;102359.83;457018;114;922541;-68
2022/03/16 03:17:41;;;;;;;2.66;2.44;;;;;;;-2.12;57.69;102359.83;457066;116;930393;-68
2022/03/16 03:18:45;;;;;;;2.98;2.52;;;;;;;-2.13;57.84;102356.29;456896;116;922488;-68
2022/03/16 03:19:48;;;;;;;2.91;2.36;;;;;;;-2.13;57.89;102363.44;457100;116;922769;-67
2022/03/16 03:20:52;;;;;;;3.42;2.59;;;;;;;-2.12;57.96;102363.36;457126;114;922490;-68
2022/03/16 03:21:55;;;;;;;2.98;2.71;;;;;;;-2.10;58.06;102363.28;457242;116;922859;-68
2022/03/16 03:22:58;;;;;;;2.51;2.21;;;;;;;-2.08;58.11;102361.36;457119;116;922552;-69
2022/03/16 03:24:02;;;;;;;2.59;2.29;;;;;;;-2.05;58.17;102357.66;457073;116;930315;-69
2022/03/16 03:25:12;;;;;;;3.19;2.54;;;;;;;-2.03;58.17;102358.41;447922;118;924005;-69
2022/03/16 03:26:16;;;;;;;3.54;2.67;;;;;;;-2.02;58.03;102366.34;456909;116;922694;-68
2022/03/16 03:27:19;;;;;;;2.86;2.47;;;;;;;-2.02;58.04;102363.67;457170;116;922995;-71
2022/03/16 03:28:22;;;;;;;3.17;2.81;;;;;;;-2.02;58.01;102365.48;457138;115;923083;-68
2022/03/16 03:29:26;;;;;;;3.24;2.60;;;;;;;-2.03;57.96;102364.63;457089;116;922584;-68
2022/03/16 03:30:29;;;;;;;2.79;2.42;;;;;;;-2.03;58.01;102375.31;456852;116;922704;-67
2022/03/16 03:31:33;;;;;;;2.90;2.47;;;;;;;-2.03;57.99;102372.64;457051;116;922753;-68
2022/03/16 03:32:36;;;;;;;3.54;2.38;;;;;;;-2.04;57.79;102368.23;456934;115;930403;-68
2022/03/16 03:33:40;;;;;;;2.67;2.46;;;;;;;-2.09;57.61;102369.48;457092;113;922602;-68
2022/03/16 03:34:46;;;;;;;2.50;2.30;;;;;;;-2.16;57.68;102369.84;457148;115;930354;-68
2022/03/16 03:35:49;;;;;;;2.66;2.40;;;;;;;-2.20;57.71;102370.95;456970;114;922485;-70
2022/03/16 03:36:53;;;;;;;2.83;2.17;;;;;;;-2.24;57.68;102372.09;457154;116;922624;-69
2022/03/16 03:37:56;;;;;;;2.69;2.49;;;;;;;-2.30;57.68;102369.77;457081;116;930330;-70
2022/03/16 03:38:59;;;;;;;2.79;2.47;;;;;;;-2.35;57.68;102377.19;457247;116;922559;-69
2022/03/16 03:40:04;;;;;;;3.01;2.33;;;;;;;-2.40;57.76;102376.59;457059;116;923268;-67
2022/03/16 03:41:07;;;;;;;3.62;2.73;;;;;;;-2.44;57.85;102379.53;456916;116;930589;-67
2022/03/16 03:42:11;;;;;;;2.67;2.30;;;;;;;-2.49;58.00;102385.14;457045;116;922722;-67
2022/03/16 03:43:14;;;;;;;4.26;3.16;;;;;;;-2.54;57.97;102385.38;456950;116;930360;-69
2022/03/16 03:44:17;;;;;;;2.91;2.47;;;;;;;-2.59;57.97;102381.27;457031;116;922641;-67
2022/03/16 03:45:21;;;;;;;3.56;1.96;;;;;;;-2.65;58.07;102381.61;457194;115;922744;-68
2022/03/16 03:46:26;;;;;;;2.55;2.21;;;;;;;-2.70;58.28;102376.50;456933;114;922708;-67
2022/03/16 03:47:29;;;;;;;2.60;2.34;;;;;;;-2.73;58.40;102375.83;457112;115;922562;-68
2022/03/16 03:48:33;;;;;;;3.46;2.59;;;;;;;-2.76;58.45;102382.22;457101;114;922937;-69
2022/03/16 03:49:38;;;;;;;2.69;2.39;;;;;;;-2.78;58.49;102392.11;457324;114;922522;-67
2022/03/16 03:50:42;;;;;;;2.62;2.42;;;;;;;-2.78;58.59;102385.91;456828;114;922914;-67
2022/03/16 03:51:45;;;;;;;3.42;2.74;;;;;;;-2.80;58.63;102382.44;456891;116;922585;-68
2022/03/16 03:52:49;;;;;;;3.81;3.06;;;;;;;-2.81;58.70;102381.58;457049;116;922739;-68
2022/03/16 03:53:52;;;;;;;3.88;3.00;;;;;;;-2.80;58.77;102385.11;457027;116;922554;-68
2022/03/16 03:54:56;;;;;;;3.43;3.11;;;;;;;-2.82;58.81;102387.03;457153;116;922536;-71
2022/03/16 03:55:59;;;;;;;3.50;3.14;;;;;;;-2.82;58.94;102392.36;456972;114;922689;-67
2022/03/16 03:57:04;;;;;;;3.90;3.59;;;;;;;-2.80;59.04;102382.44;457103;116;923016;-68
2022/03/16 03:58:07;;;;;;;3.64;2.89;;;;;;;-2.81;59.15;102386.92;456836;116;927178;-68
2022/03/16 03:59:10;;;;;;;3.28;2.86;;;;;;;-2.79;59.04;102382.37;457032;115;930549;-68
2022/03/16 04:00:16;;;;;;;3.17;2.68;;;;;;;-2.78;59.14;102385.91;456949;115;922676;-69
2022/03/16 04:01:19;;;;;;;3.62;3.01;;;;;;;-2.75;59.19;102393.72;457024;114;922683;-69
2022/03/16 04:02:22;;;;;;;3.75;2.78;;;;;;;-2.74;59.16;102390.98;457111;116;930426;-68
2022/03/16 04:03:26;;;;;;;3.19;2.62;;;;;;;-2.71;59.19;102387.30;457263;116;922638;-70
2022/03/16 04:04:30;;;;;;;2.68;2.46;;;;;;;-2.70;59.21;102389.85;457179;116;930624;-68
2022/03/16 04:05:34;;;;;;;3.02;2.32;;;;;;;-2.69;59.09;102390.72;457244;116;922971;-68
2022/03/16 04:06:37;;;;;;;3.29;2.71;;;;;;;-2.72;58.97;102389.09;457194;114;923096;-68
2022/03/16 04:07:41;;;;;;;3.16;2.66;;;;;;;-2.76;59.01;102395.56;457137;116;922637;-68
2022/03/16 04:08:44;;;;;;;3.61;2.52;;;;;;;-2.78;59.05;102391.23;448223;118;922538;-67
2022/03/16 04:09:50;;;;;;;3.99;2.79;;;;;;;-2.80;59.24;102395.79;448036;118;922611;-67
2022/03/16 04:10:52;;;;;;;3.66;3.12;;;;;;;-2.80;59.34;102393.98;448015;118;923026;-66
2022/03/16 04:11:56;;;;;;;5.24;3.69;;;;;;;-2.78;59.38;102386.77;448115;118;923313;-67
2022/03/16 04:12:59;;;;;;;4.28;3.06;;;;;;;-2.76;59.39;102392.89;448156;118;923439;-68
2022/03/16 04:14:03;;;;;;;2.63;2.42;;;;;;;-2.72;59.52;102391.77;448230;118;922619;-67
2022/03/16 04:15:07;;;;;;;3.50;3.07;;;;;;;-2.68;59.53;102393.31;439524;120;923177;-67
2022/03/16 04:16:11;;;;;;;5.46;3.10;;;;;;;-2.64;59.45;102393.98;439479;120;923835;-69
2022/03/16 04:17:14;;;;;;;3.30;2.92;;;;;;;-2.64;59.34;102393.98;439615;120;930546;-67
2022/03/16 04:18:18;;;;;;;4.30;2.92;;;;;;;-2.63;59.36;102398.39;439649;120;922581;-67
2022/03/16 04:19:21;;;;;;;3.64;3.05;;;;;;;-2.61;59.46;102396.50;439595;120;930578;-68
2022/03/16 04:20:24;;;;;;;6.90;2.72;;;;;;;-2.59;59.52;102386.61;439693;120;922744;-67
2022/03/16 04:21:28;;;;;;;4.17;2.84;;;;;;;-2.57;59.35;102395.38;439329;118;930586;-68
2022/03/16 04:22:31;;;;;;;3.35;3.05;;;;;;;-2.58;59.26;102393.65;445180;119;922927;-69
2022/03/16 04:23:36;;;;;;;3.98;3.21;;;;;;;-2.58;59.34;102390.98;444370;119;922552;-68
2022/03/16 04:24:39;;;;;;;3.44;3.11;;;;;;;-2.58;59.34;102389.17;445246;119;922466;-69
2022/03/16 04:25:43;;;;;;;3.75;3.29;;;;;;;-2.59;59.23;102383.94;443618;117;922636;-69
2022/03/16 04:26:46;;;;;;;3.60;3.18;;;;;;;-2.59;59.36;102390.11;444943;119;922531;-69
2022/03/16 04:27:49;;;;;;;4.08;3.54;;;;;;;-2.59;59.36;102390.11;445078;119;930561;-67
2022/03/16 04:28:53;;;;;;;3.54;3.01;;;;;;;-2.59;59.35;102383.94;445094;118;922380;-69
2022/03/16 04:29:56;;;;;;;5.80;3.17;;;;;;;-2.57;59.39;102392.70;444797;119;923465;-70
2022/03/16 04:31:02;;;;;;;3.87;2.99;;;;;;;-2.56;59.37;102387.29;445117;119;922929;-68
2022/03/16 04:32:07;;;;;;;3.50;3.12;;;;;;;-2.56;59.38;102392.63;444936;119;930545;-68
2022/03/16 04:33:10;;;;;;;4.21;3.80;;;;;;;-2.55;59.49;102393.49;444864;117;922582;-69
2022/03/16 04:34:14;;;;;;;3.53;2.99;;;;;;;-2.53;59.50;102395.11;444147;119;922584;-69
2022/03/16 04:35:18;;;;;;;3.46;2.88;;;;;;;-2.51;59.50;102400.38;444082;119;923010;-68
2022/03/16 04:36:22;;;;;;;3.51;3.07;;;;;;;-2.48;59.52;102391.34;448152;116;923276;-68
2022/03/16 04:37:25;;;;;;;3.26;2.93;;;;;;;-2.48;59.49;102389.51;448343;118;922656;-68
2022/03/16 04:38:29;;;;;;;3.54;2.96;;;;;;;-2.46;59.48;102400.11;448282;118;922557;-66
2022/03/16 04:39:32;;;;;;;3.62;2.93;;;;;;;-2.45;59.51;102394.69;443847;118;922498;-68
2022/03/16 04:40:36;;;;;;;3.81;2.99;;;;;;;-2.44;59.54;102396.42;448308;118;923120;-69
2022/03/16 04:41:39;;;;;;;3.21;2.89;;;;;;;-2.40;59.57;102397.09;440676;118;923010;-67
2022/03/16 04:42:43;;;;;;;5.08;2.98;;;;;;;-2.39;59.52;102404.17;448192;118;922791;-68
2022/03/16 04:43:46;;;;;;;3.53;2.47;;;;;;;-2.38;59.61;102400.55;448265;118;923367;-68
2022/03/16 04:44:49;;;;;;;3.09;2.73;;;;;;;-2.36;59.63;102390.62;446951;118;922903;-68
2022/03/16 04:45:53;;;;;;;2.61;2.39;;;;;;;-2.34;59.60;102402.09;440152;118;923046;-68
2022/03/16 04:46:56;;;;;;;3.10;2.35;;;;;;;-2.33;59.60;102393.14;448188;118;922542;-67
2022/03/16 04:47:59;;;;;;;2.74;2.54;;;;;;;-2.33;59.61;102394.00;448255;118;922614;-69
2022/03/16 04:49:05;;;;;;;2.73;2.28;;;;;;;-2.31;59.68;102396.56;440204;120;922734;-68
2022/03/16 04:50:09;;;;;;;3.08;2.55;;;;;;;-2.29;59.68;102397.34;448242;118;922676;-68
2022/03/16 04:51:12;;;;;;;3.60;2.45;;;;;;;-2.26;59.73;102403.36;446006;117;922656;-69
2022/03/16 04:52:16;;;;;;;2.82;2.58;;;;;;;-2.22;59.72;102404.06;448214;118;922658;-67
2022/03/16 04:53:19;;;;;;;2.99;2.76;;;;;;;-2.19;59.69;102401.20;448235;118;922566;-67